createdAt,value
2018-04-28T00:01:49.900Z,84.20
2018-04-28T00:03:53.371Z,83.70
2018-04-28T00:05:55.956Z,83.70
2018-04-28T00:07:58.619Z,83.50
2018-04-28T00:10:01.207Z,84.20
2018-04-28T00:12:03.929Z,83.50
2018-04-28T00:14:06.600Z,83.90
2018-04-28T00:16:10.064Z,83.40
2018-04-28T00:18:13.448Z,82.70
2018-04-28T00:20:30.304Z,82.30
2018-04-28T00:22:34.683Z,82.20
2018-04-28T00:27:27.109Z,81.80
2018-04-28T00:29:29.712Z,81.90
2018-04-28T00:31:37.543Z,81.80
2018-04-28T00:33:40.150Z,81.60
2018-04-28T00:35:42.723Z,81.60
2018-04-28T00:37:54.069Z,81.80
2018-04-28T00:40:03.200Z,82.30
2018-04-28T00:42:08.727Z,82.60
2018-04-28T00:44:15.958Z,82.50
2018-04-28T00:46:27.398Z,83.00
2018-04-28T00:48:32.886Z,83.70
2018-04-28T00:50:36.284Z,83.60
2018-04-28T00:52:38.875Z,83.50
2018-04-28T00:54:43.078Z,84.80
2018-04-28T00:59:22.121Z,84.40
2018-04-28T01:01:35.348Z,84.30
2018-04-28T01:06:15.339Z,83.40
2018-04-28T01:08:23.413Z,84.00
2018-04-28T01:10:31.507Z,83.40
2018-04-28T01:12:36.451Z,83.40
2018-04-28T01:14:39.876Z,83.10
2018-04-28T01:16:47.040Z,83.10
2018-04-28T01:19:02.447Z,83.10
2018-04-28T01:21:05.046Z,82.90
2018-04-28T01:23:07.631Z,83.10
2018-04-28T01:25:11.103Z,82.80
2018-04-28T01:27:30.356Z,82.60
2018-04-28T01:29:32.981Z,82.20
2018-04-28T01:31:37.951Z,82.60
2018-04-28T01:36:20.253Z,82.60
2018-04-28T01:38:25.719Z,82.30
2018-04-28T01:40:28.311Z,82.30
2018-04-28T01:42:39.771Z,82.20
2018-04-28T01:45:08.148Z,82.20
2018-04-28T01:47:19.432Z,82.30
2018-04-28T01:49:30.027Z,82.40
2018-04-28T01:51:37.534Z,82.30
2018-04-28T01:56:29.604Z,82.60
2018-04-28T01:58:32.187Z,82.70
2018-04-28T02:00:40.885Z,83.30
2018-04-28T02:02:50.229Z,83.20
2018-04-28T02:04:53.687Z,83.20
2018-04-28T02:07:02.908Z,83.40
2018-04-28T02:09:05.476Z,83.20
2018-04-28T02:11:08.999Z,82.80
2018-04-28T02:13:14.100Z,82.90
2018-04-28T02:15:24.651Z,82.80
2018-04-28T02:17:37.488Z,83.30
2018-04-28T02:20:00.723Z,83.30
2018-04-28T02:22:15.170Z,83.20
2018-04-28T02:27:10.363Z,83.30
2018-04-28T02:29:19.772Z,83.20
2018-04-28T02:31:29.848Z,83.10
2018-04-28T02:33:32.440Z,83.10
2018-04-28T02:35:40.824Z,82.90
2018-04-28T02:37:44.211Z,82.70
2018-04-28T02:42:33.445Z,82.60
2018-04-28T02:44:43.510Z,82.20
2018-04-28T02:46:52.929Z,82.50
2018-04-28T02:49:20.223Z,82.90
2018-04-28T02:51:29.546Z,82.50
2018-04-28T02:53:40.508Z,82.30
2018-04-28T02:55:50.701Z,82.20
2018-04-28T02:57:58.067Z,82.50
2018-04-28T03:00:03.317Z,82.50
2018-04-28T03:02:08.573Z,82.50
2018-04-28T03:04:15.918Z,82.00
2018-04-28T03:06:36.117Z,81.70
2018-04-28T03:08:40.667Z,81.70
2018-04-28T03:11:00.009Z,81.70
2018-04-28T03:13:02.584Z,82.70
2018-04-28T03:15:05.155Z,82.30
2018-04-28T03:17:08.530Z,82.50
2018-04-28T03:19:12.753Z,82.60
2018-04-28T03:21:16.457Z,82.50
2018-04-28T03:23:39.937Z,82.90
2018-04-28T03:25:57.445Z,82.80
2018-04-28T03:28:07.972Z,82.90
2018-04-28T03:30:10.540Z,83.70
2018-04-28T03:32:13.135Z,83.80
2018-04-28T03:34:21.238Z,83.60
2018-04-28T03:36:29.300Z,83.00
2018-04-28T03:39:07.299Z,83.60
2018-04-28T03:41:11.744Z,83.20
2018-04-28T03:43:30.920Z,83.30
2018-04-28T03:45:36.896Z,83.40
2018-04-28T03:48:00.297Z,83.30
2018-04-28T03:50:02.880Z,83.20
2018-04-28T03:52:23.247Z,83.30
2018-04-28T03:54:37.658Z,83.20
2018-04-28T03:56:47.659Z,83.40
2018-04-28T03:59:02.189Z,83.20
2018-04-28T04:01:16.512Z,83.20
2018-04-28T04:03:19.885Z,82.80
2018-04-28T04:05:32.200Z,82.80
2018-04-28T04:07:37.075Z,82.80
2018-04-28T04:09:46.306Z,82.70
2018-04-28T04:12:04.631Z,82.60
2018-04-28T04:16:53.747Z,82.90
2018-04-28T04:19:17.085Z,82.40
2018-04-28T04:21:37.497Z,82.40
2018-04-28T04:23:47.459Z,82.50
2018-04-28T04:25:56.792Z,82.50
2018-04-28T04:28:01.999Z,82.40
2018-04-28T04:30:16.371Z,82.30
2018-04-28T04:32:33.903Z,82.30
2018-04-28T04:37:09.017Z,82.70
2018-04-28T04:39:37.271Z,83.30
2018-04-28T04:41:59.601Z,83.10
2018-04-28T04:44:05.920Z,82.80
2018-04-28T04:46:27.374Z,82.90
2018-04-28T04:48:45.449Z,83.00
2018-04-28T04:51:00.224Z,83.20
2018-04-28T04:53:18.604Z,83.50
2018-04-28T04:55:24.680Z,83.50
2018-04-28T04:57:35.064Z,83.50
2018-04-28T04:59:48.503Z,83.40
2018-04-28T05:02:11.697Z,83.00
2018-04-28T05:04:21.882Z,83.60
2018-04-28T05:06:34.243Z,84.20
2018-04-28T05:11:34.616Z,83.70
2018-04-28T05:16:32.502Z,83.50
2018-04-28T05:18:46.916Z,83.50
2018-04-28T05:20:53.865Z,83.00
2018-04-28T05:23:18.819Z,83.00
2018-04-28T05:25:33.111Z,83.00
2018-04-28T05:27:46.407Z,82.30
2018-04-28T05:29:58.911Z,82.50
2018-04-28T05:32:13.129Z,82.30
2018-04-28T05:34:42.116Z,81.60
2018-04-28T05:39:31.535Z,82.10
2018-04-28T05:41:44.985Z,82.10
2018-04-28T05:43:59.591Z,82.50
2018-04-28T05:46:06.869Z,83.10
2018-04-28T05:48:33.781Z,83.30
2018-04-28T05:50:45.188Z,83.30
2018-04-28T05:55:35.223Z,83.60
2018-04-28T05:58:04.049Z,83.20
2018-04-28T06:00:17.899Z,82.90
2018-04-28T06:08:35.415Z,82.40
2018-04-28T06:10:58.985Z,82.40
2018-04-28T06:13:23.905Z,81.90
2018-04-28T06:15:31.523Z,81.80
2018-04-28T06:17:47.375Z,81.50
2018-04-28T06:22:39.321Z,81.50
2018-04-28T06:24:42.573Z,81.50
2018-04-28T06:26:46.144Z,81.40
2018-04-28T06:28:49.860Z,81.30
2018-04-28T06:30:52.972Z,80.80
2018-04-28T06:32:56.090Z,80.50
2018-04-28T06:34:59.427Z,80.80
2018-04-28T06:37:03.211Z,79.50
2018-04-28T06:39:07.899Z,79.40
2018-04-28T06:41:11.708Z,79.70
2018-04-28T06:43:14.583Z,79.60
2018-04-28T06:45:17.729Z,79.70
2018-04-28T06:47:21.055Z,79.70
2018-04-28T06:49:25.411Z,80.90
2018-04-28T06:51:28.287Z,81.50
2018-04-28T06:53:30.920Z,82.60
2018-04-28T06:55:34.075Z,82.90
2018-04-28T06:57:36.927Z,83.00
2018-04-28T06:59:39.774Z,82.60
2018-04-28T07:01:42.425Z,82.70
2018-04-28T07:03:45.460Z,83.70
2018-04-28T07:05:48.260Z,84.10
2018-04-28T07:07:51.712Z,83.80
2018-04-28T07:09:55.111Z,84.20
2018-04-28T07:11:57.758Z,84.20
2018-04-28T07:14:00.453Z,84.30
2018-04-28T07:16:03.112Z,84.40
2018-04-28T07:18:05.746Z,83.80
2018-04-28T07:20:09.344Z,81.60
2018-04-28T07:22:12.779Z,81.30
2018-04-28T07:24:15.388Z,81.30
2018-04-28T07:26:18.079Z,80.10
2018-04-28T07:28:20.808Z,79.90
2018-04-28T07:30:26.763Z,80.60
2018-04-28T07:32:33.363Z,80.60
2018-04-28T07:34:36.032Z,80.20
2018-04-28T07:36:38.715Z,80.20
2018-04-28T07:38:41.430Z,79.90
2018-04-28T07:40:44.108Z,80.00
2018-04-28T07:42:46.816Z,78.60
2018-04-28T07:44:49.834Z,78.40
2018-04-28T07:46:53.562Z,77.70
2018-04-28T07:48:56.361Z,78.00
2018-04-28T07:50:59.759Z,78.10
2018-04-28T07:53:03.000Z,77.70
2018-04-28T07:55:06.495Z,77.10
2018-04-28T07:57:10.052Z,77.00
2018-04-28T07:59:13.571Z,76.60
2018-04-28T08:01:16.367Z,74.60
2018-04-28T08:03:20.410Z,73.60
2018-04-28T08:05:24.488Z,74.20
2018-04-28T08:07:28.363Z,74.10
2018-04-28T08:09:32.156Z,75.50
2018-04-28T08:11:36.299Z,76.30
2018-04-28T08:13:40.499Z,75.90
2018-04-28T08:15:44.089Z,74.00
2018-04-28T08:17:48.199Z,74.00
2018-04-28T08:19:53.224Z,72.00
2018-04-28T08:21:56.398Z,72.90
2018-04-28T08:23:59.152Z,72.50
2018-04-28T08:26:02.366Z,71.70
2018-04-28T08:28:06.252Z,70.40
2018-04-28T08:30:09.288Z,70.80
2018-04-28T08:32:13.760Z,67.30
2018-04-28T08:34:19.235Z,67.20
2018-04-28T08:36:22.616Z,67.10
2018-04-28T08:38:25.353Z,64.90
2018-04-28T08:40:28.780Z,62.30
2018-04-28T08:42:32.481Z,61.40
2018-04-28T08:44:35.203Z,61.30
2018-04-28T08:46:39.103Z,61.10
2018-04-28T08:48:44.704Z,61.90
2018-04-28T08:50:48.072Z,61.70
2018-04-28T08:52:51.639Z,61.30
2018-04-28T08:54:54.755Z,60.20
2018-04-28T08:56:58.009Z,60.50
2018-04-28T08:59:00.651Z,61.40
2018-04-28T09:01:03.251Z,62.00
2018-04-28T09:03:05.999Z,60.60
2018-04-28T09:05:08.619Z,59.40
2018-04-28T09:07:38.564Z,59.20
2018-04-28T09:09:42.975Z,59.20
2018-04-28T09:11:45.722Z,60.00
2018-04-28T09:13:48.324Z,60.80
2018-04-28T09:15:50.897Z,60.10
2018-04-28T09:17:53.512Z,60.70
2018-04-28T09:19:56.269Z,61.00
2018-04-28T09:21:58.869Z,60.20
2018-04-28T09:24:01.607Z,60.10
2018-04-28T09:26:04.221Z,59.80
2018-04-28T09:28:06.848Z,60.40
2018-04-28T09:30:09.436Z,59.00
2018-04-28T09:32:12.046Z,58.90
2018-04-28T09:34:14.828Z,58.60
2018-04-28T09:36:17.596Z,57.30
2018-04-28T09:38:20.440Z,58.10
2018-04-28T09:40:23.345Z,58.80
2018-04-28T09:42:25.955Z,58.70
2018-04-28T09:44:28.589Z,58.60
2018-04-28T09:46:31.229Z,58.50
2018-04-28T09:48:34.826Z,58.00
2018-04-28T09:50:38.273Z,58.10
2018-04-28T09:52:41.208Z,58.10
2018-04-28T09:54:43.949Z,58.10
2018-04-28T09:56:46.713Z,58.40
2018-04-28T09:58:49.431Z,57.80
2018-04-28T10:00:52.812Z,58.20
2018-04-28T10:02:56.356Z,58.00
2018-04-28T10:05:01.310Z,57.70
2018-04-28T10:07:06.803Z,59.20
2018-04-28T10:09:11.565Z,58.00
2018-04-28T10:11:17.495Z,57.20
2018-04-28T10:13:22.547Z,57.30
2018-04-28T10:15:29.225Z,57.70
2018-04-28T10:17:35.049Z,57.80
2018-04-28T10:19:45.638Z,59.60
2018-04-28T10:21:50.477Z,59.80
2018-04-28T10:23:55.734Z,58.50
2018-04-28T10:26:01.962Z,59.40
2018-04-28T10:28:13.910Z,58.00
2018-04-28T10:30:16.513Z,57.90
2018-04-28T10:32:19.119Z,57.60
2018-04-28T10:34:21.750Z,57.90
2018-04-28T10:36:24.465Z,58.80
2018-04-28T10:38:27.306Z,58.60
2018-04-28T10:40:29.899Z,58.30
2018-04-28T10:42:32.840Z,58.60
2018-04-28T10:44:35.447Z,59.10
2018-04-28T10:46:38.027Z,57.70
2018-04-28T10:48:40.638Z,57.50
2018-04-28T10:50:43.220Z,57.30
2018-04-28T10:52:46.571Z,57.40
2018-04-28T10:54:49.200Z,57.30
2018-04-28T10:56:52.568Z,57.80
2018-04-28T10:58:55.179Z,57.80
2018-04-28T11:00:57.840Z,57.60
2018-04-28T11:03:01.243Z,56.10
2018-04-28T11:05:03.815Z,56.10
2018-04-28T11:07:06.476Z,55.50
2018-04-28T11:09:09.840Z,57.30
2018-04-28T11:11:12.490Z,57.20
2018-04-28T11:13:15.509Z,57.90
2018-04-28T11:15:18.156Z,56.80
2018-04-28T11:17:20.763Z,57.40
2018-04-28T11:19:23.384Z,55.30
2018-04-28T11:21:25.967Z,55.00
2018-04-28T11:23:30.094Z,55.80
2018-04-28T11:25:32.964Z,54.40
2018-04-28T11:27:35.480Z,53.30
2018-04-28T11:29:38.970Z,55.70
2018-04-28T11:31:41.539Z,55.60
2018-04-28T11:33:44.185Z,53.80
2018-04-28T11:35:46.857Z,54.10
2018-04-28T11:37:49.449Z,54.30
2018-04-28T11:39:52.104Z,54.40
2018-04-28T11:41:54.740Z,55.60
2018-04-28T11:43:58.144Z,55.30
2018-04-28T11:46:00.796Z,55.30
2018-04-28T11:48:04.316Z,56.40
2018-04-28T11:50:06.921Z,56.20
2018-04-28T11:52:09.522Z,55.40
2018-04-28T11:54:12.176Z,54.10
2018-04-28T11:56:14.760Z,52.90
2018-04-28T11:58:17.348Z,52.70
2018-04-28T12:00:19.956Z,53.10
2018-04-28T12:02:22.546Z,52.50
2018-04-28T12:04:25.181Z,54.50
2018-04-28T12:06:27.782Z,55.20
2018-04-28T12:08:30.512Z,55.40
2018-04-28T12:10:33.212Z,55.20
2018-04-28T12:12:36.598Z,54.60
2018-04-28T12:14:39.200Z,54.60
2018-04-28T12:16:41.801Z,54.90
2018-04-28T12:18:44.529Z,54.80
2018-04-28T12:20:47.895Z,54.60
2018-04-28T12:22:50.516Z,54.60
2018-04-28T12:24:53.129Z,54.60
2018-04-28T12:26:55.726Z,54.00
2018-04-28T12:28:58.431Z,52.40
2018-04-28T12:31:01.905Z,51.00
2018-04-28T12:33:04.434Z,51.00
2018-04-28T12:35:07.044Z,51.50
2018-04-28T12:37:09.647Z,52.30
2018-04-28T12:39:12.999Z,52.30
2018-04-28T12:41:15.700Z,52.20
2018-04-28T12:43:18.277Z,52.40
2018-04-28T12:45:21.675Z,51.90
2018-04-28T12:47:25.056Z,50.90
2018-04-28T12:49:27.647Z,50.80
2018-04-28T12:51:31.082Z,52.20
2018-04-28T12:53:33.769Z,52.10
2018-04-28T12:55:36.775Z,51.40
2018-04-28T12:57:39.440Z,51.70
2018-04-28T12:59:42.055Z,51.40
2018-04-28T13:01:45.490Z,51.50
2018-04-28T13:03:48.092Z,51.40
2018-04-28T13:05:50.721Z,51.60
2018-04-28T13:07:53.323Z,50.60
2018-04-28T13:09:55.956Z,51.00
2018-04-28T13:11:58.572Z,50.70
2018-04-28T13:14:01.185Z,52.90
2018-04-28T13:16:04.572Z,52.00
2018-04-28T13:18:07.187Z,52.50
2018-04-28T13:20:14.482Z,52.20
2018-04-28T13:22:18.428Z,53.00
2018-04-28T13:24:23.779Z,53.00
2018-04-28T13:26:27.168Z,51.90
2018-04-28T13:28:30.539Z,52.80
2018-04-28T13:30:33.172Z,52.50
2018-04-28T13:32:35.803Z,51.80
2018-04-28T13:34:38.364Z,50.40
2018-04-28T13:36:40.986Z,49.50
2018-04-28T13:38:47.119Z,49.50
2018-04-28T13:40:49.830Z,50.80
2018-04-28T13:42:52.651Z,51.30
2018-04-28T13:44:55.268Z,52.00
2018-04-28T13:46:58.647Z,51.40
2018-04-28T13:49:02.015Z,51.10
2018-04-28T13:51:04.671Z,51.10
2018-04-28T13:53:07.372Z,51.80
2018-04-28T13:55:10.163Z,52.10
2018-04-28T13:57:12.792Z,52.60
2018-04-28T13:59:15.385Z,51.00
2018-04-28T14:01:17.995Z,51.40
2018-04-28T14:03:20.645Z,52.10
2018-04-28T14:05:23.252Z,51.40
2018-04-28T14:07:25.894Z,53.00
2018-04-28T14:09:28.470Z,51.40
2018-04-28T14:11:31.160Z,51.30
2018-04-28T14:13:33.776Z,51.00
2018-04-28T14:15:36.386Z,51.10
2018-04-28T14:17:39.036Z,51.20
2018-04-28T14:19:41.647Z,51.60
2018-04-28T14:21:44.262Z,51.10
2018-04-28T14:23:47.422Z,50.90
2018-04-28T14:25:50.032Z,50.50
2018-04-28T14:27:52.652Z,51.90
2018-04-28T14:29:55.240Z,52.50
2018-04-28T14:31:57.917Z,52.30
2018-04-28T14:34:00.567Z,51.40
2018-04-28T14:36:03.482Z,51.80
2018-04-28T14:38:06.852Z,51.20
2018-04-28T14:40:09.510Z,51.10
2018-04-28T14:42:12.119Z,50.70
2018-04-28T14:44:16.507Z,51.30
2018-04-28T14:46:19.109Z,51.90
2018-04-28T14:48:21.732Z,50.70
2018-04-28T14:50:24.329Z,51.80
2018-04-28T14:52:26.963Z,52.30
2018-04-28T14:54:33.636Z,52.00
2018-04-28T14:56:36.307Z,51.70
2018-04-28T14:58:39.140Z,52.00
2018-04-28T15:00:41.765Z,50.90
2018-04-28T15:02:44.459Z,51.20
2018-04-28T15:04:47.080Z,51.10
2018-04-28T15:06:49.684Z,51.40
2018-04-28T15:08:52.271Z,51.90
2018-04-28T15:10:54.865Z,52.00
2018-04-28T15:12:57.473Z,50.50
2018-04-28T15:15:00.051Z,50.50
2018-04-28T15:17:02.669Z,50.20
2018-04-28T15:19:06.246Z,49.90
2018-04-28T15:21:08.920Z,51.00
2018-04-28T15:23:12.306Z,50.80
2018-04-28T15:25:15.676Z,51.50
2018-04-28T15:27:18.300Z,51.50
2018-04-28T15:29:20.885Z,50.90
2018-04-28T15:31:23.466Z,50.60
2018-04-28T15:33:26.089Z,49.60
2018-04-28T15:35:29.459Z,49.40
2018-04-28T15:37:32.068Z,49.40
2018-04-28T15:39:38.850Z,50.60
2018-04-28T15:41:41.464Z,50.50
2018-04-28T15:43:44.109Z,49.10
2018-04-28T15:45:46.695Z,49.50
2018-04-28T15:47:49.293Z,50.00
2018-04-28T15:49:51.926Z,51.20
2018-04-28T15:51:54.556Z,50.80
2018-04-28T15:53:57.161Z,50.10
2018-04-28T15:56:00.585Z,50.70
2018-04-28T15:58:03.178Z,50.70
2018-04-28T16:00:05.847Z,50.30
2018-04-28T16:02:08.509Z,49.20
2018-04-28T16:04:11.127Z,50.10
2018-04-28T16:06:13.735Z,50.10
2018-04-28T16:08:16.350Z,50.20
2018-04-28T16:10:18.946Z,50.50
2018-04-28T16:12:21.557Z,50.00
2018-04-28T16:14:24.938Z,50.50
2018-04-28T16:16:28.310Z,49.50
2018-04-28T16:18:31.072Z,49.50
2018-04-28T16:20:33.648Z,48.60
2018-04-28T16:22:36.244Z,48.50
2018-04-28T16:24:38.852Z,47.70
2018-04-28T16:26:41.471Z,48.50
2018-04-28T16:28:44.075Z,48.80
2018-04-28T16:30:47.439Z,49.80
2018-04-28T16:32:50.031Z,49.70
2018-04-28T16:34:52.663Z,49.20
2018-04-28T16:36:55.261Z,48.50
2018-04-28T16:38:58.100Z,49.40
2018-04-28T16:41:00.692Z,49.20
2018-04-28T16:43:03.293Z,48.50
2018-04-28T16:45:09.243Z,47.70
2018-04-28T16:47:11.859Z,48.10
2018-04-28T16:49:14.480Z,47.60
2018-04-28T16:51:17.159Z,47.70
2018-04-28T16:53:20.508Z,45.80
2018-04-28T16:55:23.127Z,45.80
2018-04-28T16:57:25.725Z,44.20
2018-04-28T16:59:28.372Z,42.50
2018-04-28T17:01:30.956Z,41.50
2018-04-28T17:03:33.616Z,41.40
2018-04-28T17:05:36.225Z,41.20
2018-04-28T17:07:38.904Z,42.40
2018-04-28T17:09:41.517Z,41.80
2018-04-28T17:11:44.290Z,43.00
2018-04-28T17:13:46.903Z,43.40
2018-04-28T17:15:49.501Z,44.00
2018-04-28T17:17:53.868Z,44.40
2018-04-28T17:19:56.492Z,45.30
2018-04-28T17:21:59.080Z,46.10
2018-04-28T17:24:01.752Z,46.70
2018-04-28T17:26:05.112Z,46.40
2018-04-28T17:28:07.699Z,46.90
2018-04-28T17:30:12.677Z,47.50
2018-04-28T17:32:15.569Z,47.70
2018-04-28T17:34:18.188Z,48.80
2018-04-28T17:36:20.787Z,49.00
2018-04-28T17:38:24.156Z,50.10
2018-04-28T17:40:26.761Z,50.00
2018-04-28T17:42:30.128Z,50.50
2018-04-28T17:44:32.807Z,50.50
2018-04-28T17:46:35.388Z,50.90
2018-04-28T17:48:37.969Z,51.60
2018-04-28T17:50:40.601Z,52.00
2018-04-28T17:52:43.196Z,52.70
2018-04-28T17:54:45.903Z,53.10
2018-04-28T17:56:49.314Z,54.00
2018-04-28T17:58:51.906Z,54.00
2018-04-28T18:00:54.520Z,54.30
2018-04-28T18:02:57.099Z,55.50
2018-04-28T18:04:59.693Z,55.70
2018-04-28T18:07:03.067Z,55.90
2018-04-28T18:09:06.444Z,55.80
2018-04-28T18:11:09.062Z,55.70
2018-04-28T18:13:11.815Z,55.90
2018-04-28T18:15:15.219Z,56.70
2018-04-28T18:17:17.818Z,56.70
2018-04-28T18:19:20.430Z,57.10
2018-04-28T18:21:23.197Z,57.20
2018-04-28T18:23:25.787Z,58.30
2018-04-28T18:25:28.405Z,59.70
2018-04-28T18:27:30.994Z,59.80
2018-04-28T18:29:33.575Z,60.30
2018-04-28T18:31:36.279Z,60.40
2018-04-28T18:33:38.875Z,60.50
2018-04-28T18:35:41.488Z,61.10
2018-04-28T18:37:44.068Z,61.80
2018-04-28T18:39:46.715Z,62.30
2018-04-28T18:41:50.267Z,63.00
2018-04-28T18:43:52.867Z,63.00
2018-04-28T18:45:55.584Z,63.40
2018-04-28T18:47:58.173Z,63.70
2018-04-28T18:50:00.911Z,63.90
2018-04-28T18:52:04.255Z,64.60
2018-04-28T18:54:07.660Z,65.00
2018-04-28T18:56:10.291Z,64.90
2018-04-28T18:58:12.908Z,64.50
2018-04-28T19:00:15.553Z,65.30
2018-04-28T19:02:18.143Z,65.60
2018-04-28T19:04:20.728Z,65.80
2018-04-28T19:06:23.354Z,65.20
2018-04-28T19:08:26.718Z,64.20
2018-04-28T19:10:29.374Z,64.20
2018-04-28T19:12:31.964Z,65.00
2018-04-28T19:14:34.580Z,64.70
2018-04-28T19:16:37.226Z,65.90
2018-04-28T19:18:40.620Z,66.10
2018-04-28T19:20:44.046Z,66.30
2018-04-28T19:22:46.703Z,66.20
2018-04-28T19:24:50.071Z,66.70
2018-04-28T19:26:52.695Z,66.60
2018-04-28T19:28:55.289Z,66.40
2018-04-28T19:30:57.964Z,66.90
2018-04-28T19:33:00.672Z,67.50
2018-04-28T19:35:03.312Z,67.60
2018-04-28T19:37:05.922Z,68.10
2018-04-28T19:39:08.515Z,67.70
2018-04-28T19:41:11.887Z,66.30
2018-04-28T19:43:14.473Z,66.30
2018-04-28T19:45:17.815Z,66.40
2018-04-28T19:47:20.426Z,66.40
2018-04-28T19:49:23.063Z,66.30
2018-04-28T19:51:25.694Z,66.40
2018-04-28T19:53:29.052Z,67.10
2018-04-28T19:55:31.660Z,67.00
2018-04-28T19:57:35.030Z,67.40
2018-04-28T19:59:37.635Z,67.40
2018-04-28T20:01:41.060Z,68.10
2018-04-28T20:03:43.789Z,68.10
2018-04-28T20:05:47.179Z,68.40
2018-04-28T20:07:49.869Z,67.80
2018-04-28T20:09:53.319Z,67.90
2018-04-28T20:11:56.717Z,68.00
2018-04-28T20:13:59.332Z,68.00
2018-04-28T20:16:02.712Z,67.80
2018-04-28T20:18:06.109Z,67.90
2018-04-28T20:20:09.486Z,68.00
2018-04-28T20:22:23.888Z,68.00
2018-04-28T20:27:02.202Z,68.40
2018-04-28T20:29:04.813Z,69.00
2018-04-28T20:31:07.442Z,69.20
2018-04-28T20:33:10.815Z,69.90
2018-04-28T20:35:14.207Z,70.20
2018-04-28T20:37:17.605Z,70.50
2018-04-28T20:39:21.424Z,70.50
2018-04-28T20:41:24.024Z,70.50
2018-04-28T20:43:26.647Z,70.30
2018-04-28T20:45:29.245Z,70.50
2018-04-28T20:47:31.859Z,70.40
2018-04-28T20:49:34.459Z,70.40
2018-04-28T20:51:37.104Z,70.80
2018-04-28T20:53:39.692Z,71.00
2018-04-28T20:55:42.274Z,70.50
2018-04-28T20:57:44.884Z,71.20
2018-04-28T20:59:48.389Z,71.80
2018-04-28T21:01:50.992Z,71.80
2018-04-28T21:03:53.593Z,71.70
2018-04-28T21:05:56.236Z,71.60
2018-04-28T21:07:58.863Z,72.00
2018-04-28T21:10:01.515Z,72.20
2018-04-28T21:12:04.132Z,72.10
2018-04-28T21:14:07.517Z,72.30
2018-04-28T21:16:10.871Z,72.30
2018-04-28T21:18:14.255Z,72.60
2018-04-28T21:20:16.856Z,72.70
2018-04-28T21:22:19.473Z,72.70
2018-04-28T21:24:22.077Z,72.90
2018-04-28T21:26:24.679Z,72.80
2018-04-28T21:28:28.804Z,73.10
2018-04-28T21:30:32.192Z,74.30
2018-04-28T21:32:34.845Z,74.20
2018-04-28T21:34:37.423Z,74.20
2018-04-28T21:36:40.052Z,74.30
2018-04-28T21:38:42.725Z,74.50
2018-04-28T21:40:45.313Z,74.50
2018-04-28T21:42:47.928Z,74.30
2018-04-28T21:44:50.523Z,74.60
2018-04-28T21:46:53.140Z,74.60
2018-04-28T21:48:55.750Z,74.60
2018-04-28T21:50:58.345Z,74.50
2018-04-28T21:53:01.732Z,75.60
2018-04-28T21:55:05.132Z,75.10
2018-04-28T21:57:08.483Z,74.90
2018-04-28T21:59:11.102Z,74.90
2018-04-28T22:01:14.452Z,74.50
2018-04-28T22:03:17.075Z,74.40
2018-04-28T22:05:20.448Z,75.00
2018-04-28T22:07:23.063Z,74.90
2018-04-28T22:09:25.656Z,74.70
2018-04-28T22:11:28.247Z,75.50
2018-04-28T22:13:30.854Z,75.50
2018-04-28T22:15:34.229Z,75.80
2018-04-28T22:17:36.910Z,75.80
2018-04-28T22:19:39.511Z,76.30
2018-04-28T22:21:42.115Z,76.20
2018-04-28T22:23:44.727Z,76.20
2018-04-28T22:25:47.328Z,76.40
2018-04-28T22:27:50.716Z,76.70
2018-04-28T22:29:54.134Z,76.80
2018-04-28T22:31:57.572Z,76.40
2018-04-28T22:34:00.188Z,76.40
2018-04-28T22:36:02.776Z,76.50
2018-04-28T22:38:05.399Z,76.70
2018-04-28T22:40:07.999Z,76.20
2018-04-28T22:42:11.355Z,76.50
2018-04-28T22:44:13.988Z,76.40
2018-04-28T22:46:16.595Z,76.60
2018-04-28T22:48:19.219Z,77.40
2018-04-28T22:50:22.576Z,77.60
2018-04-28T22:52:25.242Z,77.60
2018-04-28T22:54:27.873Z,77.80
2018-04-28T22:56:30.472Z,77.70
2018-04-28T22:58:33.164Z,77.90
2018-04-28T23:00:42.572Z,77.90
2018-04-28T23:02:45.152Z,78.80
2018-04-28T23:04:47.815Z,78.70
2018-04-28T23:06:50.465Z,79.50
2018-04-28T23:08:53.872Z,79.50
2018-04-28T23:10:56.469Z,79.40
2018-04-28T23:12:59.044Z,79.20
2018-04-28T23:15:01.648Z,78.70
2018-04-28T23:17:04.257Z,78.80
2018-04-28T23:19:07.628Z,79.00
2018-04-28T23:21:10.272Z,79.00
2018-04-28T23:23:13.700Z,78.90
2018-04-28T23:25:16.318Z,78.90
2018-04-28T23:27:19.036Z,79.20
2018-04-28T23:29:21.715Z,79.30
2018-04-28T23:31:24.311Z,80.00
2018-04-28T23:33:26.896Z,80.90
2018-04-28T23:35:30.258Z,82.70
2018-04-28T23:37:32.839Z,83.30
2018-04-28T23:39:35.444Z,83.30
2018-04-28T23:41:38.033Z,84.10
2018-04-28T23:43:40.624Z,84.50
2018-04-28T23:45:43.220Z,84.60
2018-04-28T23:47:45.857Z,84.90
2018-04-28T23:49:48.527Z,85.20
2018-04-28T23:51:51.118Z,85.60
2018-04-28T23:53:53.706Z,86.00
2018-04-28T23:55:56.347Z,86.80
2018-04-28T23:57:58.958Z,87.30
